TimeEDT,TemperatureF,Dew PointF,Humidity,Sea Level PressureIn,VisibilityMPH,Wind Direction,Wind SpeedMPH,Gust SpeedMPH,PrecipitationIn,Events,Conditions,WindDirDegrees,DateUTC
12:53 AM,39.9,26.1,58,30.41,10.0,SE,11.5,-,N/A,,Clear,130,2013-04-22 04:53:00
1:53 AM,37.9,27.0,65,30.41,10.0,SE,6.9,-,N/A,,Clear,140,2013-04-22 05:53:00
2:53 AM,37.0,26.1,65,30.39,10.0,SE,8.1,-,N/A,,Clear,130,2013-04-22 06:53:00
3:53 AM,37.0,26.1,65,30.39,10.0,SE,3.5,-,N/A,,Clear,130,2013-04-22 07:53:00
4:53 AM,34.0,27.0,75,30.37,10.0,ESE,5.8,-,N/A,,Clear,120,2013-04-22 08:53:00
5:53 AM,34.0,27.0,75,30.37,10.0,ESE,4.6,-,N/A,,Mostly Cloudy,110,2013-04-22 09:53:00
6:53 AM,33.1,27.0,78,30.38,10.0,East,4.6,-,N/A,,Mostly Cloudy,90,2013-04-22 10:53:00
7:53 AM,37.0,28.9,73,30.38,10.0,SE,8.1,-,N/A,,Mostly Cloudy,130,2013-04-22 11:53:00
8:53 AM,42.1,30.0,62,30.36,10.0,SSE,10.4,-,N/A,,Scattered Clouds,150,2013-04-22 12:53:00
9:53 AM,48.0,30.9,52,30.35,10.0,SSE,11.5,-,N/A,,Mostly Cloudy,150,2013-04-22 13:53:00
10:53 AM,52.0,30.0,43,30.35,10.0,SSE,8.1,-,N/A,,Mostly Cloudy,150,2013-04-22 14:53:00
11:53 AM,55.0,28.0,35,30.33,10.0,South,5.8,-,N/A,,Mostly Cloudy,170,2013-04-22 15:53:00
12:53 PM,59.0,28.9,32,30.31,10.0,South,6.9,-,N/A,,Scattered Clouds,170,2013-04-22 16:53:00
1:53 PM,61.0,28.9,30,30.28,10.0,SE,6.9,-,N/A,,Scattered Clouds,130,2013-04-22 17:53:00
2:53 PM,62.1,28.0,28,30.26,10.0,Calm,Calm,-,N/A,,Partly Cloudy,0,2013-04-22 18:53:00
3:53 PM,64.0,26.1,24,30.23,10.0,South,8.1,-,N/A,,Partly Cloudy,190,2013-04-22 19:53:00
4:53 PM,64.9,27.0,24,30.20,10.0,SSE,8.1,-,N/A,,Scattered Clouds,150,2013-04-22 20:53:00
5:53 PM,64.0,27.0,25,30.17,10.0,SE,8.1,-,N/A,,Scattered Clouds,140,2013-04-22 21:53:00
6:53 PM,64.0,27.0,25,30.16,10.0,SE,11.5,-,N/A,,Partly Cloudy,140,2013-04-22 22:53:00
7:53 PM,59.0,28.9,32,30.15,10.0,SSE,10.4,-,N/A,,Partly Cloudy,150,2013-04-22 23:53:00
8:53 PM,55.9,27.0,33,30.15,10.0,SE,5.8,-,N/A,,Partly Cloudy,130,2013-04-23 00:53:00
9:53 PM,55.0,28.0,35,30.16,10.0,ESE,4.6,-,N/A,,Partly Cloudy,120,2013-04-23 01:53:00
10:53 PM,52.0,28.9,41,30.15,10.0,ESE,6.9,-,N/A,,Partly Cloudy,120,2013-04-23 02:53:00
11:53 PM,50.0,30.9,48,30.14,10.0,ESE,6.9,-,N/A,,Partly Cloudy,120,2013-04-23 03:53:00